Time;durP1;ratioP1;P1;durP2;ratioP2;P2;SDS_P1;SDS_P2;PMS_P1;PMS_P2;Temp;Humidity;BMP_temperature;BMP_pressure;BME280_temperature;BME280_humidity;BME280_pressure;Samples;Min_cycle;Max_cycle;Signal;HPM_P1;HPM_P2
2023/12/17 00:02:06;;;;;;;;;;;16.90;69.30;;;;;;7320263;19;9222;-71
2023/12/17 00:04:36;;;;;;;;;;;16.90;69.20;;;;;;7319495;19;9581;-71
2023/12/17 00:07:05;;;;;;;;;;;16.90;69.20;;;;;;7318112;19;9462;-71
2023/12/17 00:09:34;;;;;;;;;;;16.90;69.20;;;;;;7320369;19;9336;-71
2023/12/17 00:12:03;;;;;;;;;;;16.90;69.20;;;;;;7318291;19;9296;-71
2023/12/17 00:14:32;;;;;;;;;;;16.90;69.10;;;;;;7320462;19;9254;-71
2023/12/17 00:17:03;;;;;;;;;;;16.90;69.20;;;;;;7318918;19;9448;-71
2023/12/17 00:19:32;;;;;;;;;;;16.90;69.10;;;;;;7320061;19;9246;-71
2023/12/17 00:22:01;;;;;;;;;;;16.90;69.10;;;;;;7318881;19;9458;-71
2023/12/17 00:24:30;;;;;;;;;;;16.90;69.20;;;;;;7319423;19;11379;-71
2023/12/17 00:26:59;;;;;;;;;;;16.90;69.10;;;;;;7316404;19;9569;-71
2023/12/17 00:29:28;;;;;;;;;;;16.90;69.20;;;;;;7319320;19;9506;-71
2023/12/17 00:31:57;;;;;;;;;;;16.90;69.20;;;;;;7317342;19;9419;-71
2023/12/17 00:34:29;;;;;;;;;;;16.90;69.30;;;;;;7318783;19;9606;-72
2023/12/17 00:36:58;;;;;;;;;;;16.90;69.20;;;;;;7318486;19;9655;-71
2023/12/17 00:39:27;;;;;;;;;;;16.90;69.30;;;;;;7316620;19;9480;-71
2023/12/17 00:42:15;;;;;;;;;;;16.90;69.30;;;;;;7317578;19;10410;-71
2023/12/17 00:44:44;;;;;;;;;;;16.90;69.30;;;;;;7318416;19;10624;-71
2023/12/17 00:47:33;;;;;;;;;;;16.90;69.90;;;;;;7315980;19;10245;-72
2023/12/17 00:50:25;;;;;;;;;;;16.90;69.30;;;;;;7317575;19;9564;-71
2023/12/17 00:52:54;;;;;;;;;;;16.90;69.30;;;;;;7318257;19;9438;-71
2023/12/17 00:55:22;;;;;;;;;;;16.90;69.30;;;;;;7318344;19;10376;-71
2023/12/17 00:57:51;;;;;;;;;;;16.90;69.30;;;;;;7316292;19;9637;-72
2023/12/17 01:00:21;;;;;;;;;;;16.90;69.40;;;;;;7318368;19;9395;-71
2023/12/17 01:02:50;;;;;;;;;;;16.90;69.40;;;;;;7317514;19;9246;-71
2023/12/17 01:05:19;;;;;;;;;;;16.90;69.50;;;;;;7318123;19;10463;-71
2023/12/17 01:07:51;;;;;;;;;;;16.80;69.40;;;;;;7317464;19;9859;-71
2023/12/17 01:10:20;;;;;;;;;;;16.90;69.50;;;;;;7317271;19;9494;-71
2023/12/17 01:12:49;;;;;;;;;;;16.90;69.40;;;;;;7317766;19;9208;-71
2023/12/17 01:15:18;;;;;;;;;;;17.00;69.40;;;;;;7315356;19;9244;-71
2023/12/17 01:17:46;;;;;;;;;;;17.10;69.20;;;;;;7317991;19;9241;-71
2023/12/17 01:20:16;;;;;;;;;;;17.10;69.00;;;;;;7317361;19;9466;-71
2023/12/17 01:22:45;;;;;;;;;;;17.20;68.90;;;;;;7317358;19;9244;-71
2023/12/17 01:25:16;;;;;;;;;;;17.30;68.70;;;;;;7316852;19;9175;-71
2023/12/17 01:27:45;;;;;;;;;;;17.30;68.70;;;;;;7316231;19;9598;-71
2023/12/17 01:30:15;;;;;;;;;;;17.40;68.60;;;;;;7315794;19;9380;-71
2023/12/17 01:32:44;;;;;;;;;;;17.40;68.50;;;;;;7316135;19;9490;-71
2023/12/17 01:35:12;;;;;;;;;;;17.50;68.40;;;;;;7315198;19;9259;-71
2023/12/17 01:37:41;;;;;;;;;;;17.60;68.30;;;;;;7317702;19;9214;-71
2023/12/17 01:40:11;;;;;;;;;;;17.60;68.30;;;;;;7322439;19;10473;-71
2023/12/17 01:42:43;;;;;;;;;;;17.70;68.20;;;;;;7321601;19;9470;-71
2023/12/17 01:45:12;;;;;;;;;;;17.70;68.10;;;;;;7322689;19;9292;-72
2023/12/17 01:47:41;;;;;;;;;;;17.70;68.00;;;;;;7321850;19;9138;-71
2023/12/17 01:50:11;;;;;;;;;;;17.80;67.90;;;;;;7323212;19;9214;-71
2023/12/17 01:52:41;;;;;;;;;;;17.80;67.90;;;;;;7321092;19;9277;-71
2023/12/17 01:55:12;;;;;;;;;;;17.80;67.90;;;;;;7321510;19;9569;-71
2023/12/17 01:57:44;;;;;;;;;;;17.80;68.00;;;;;;7322034;19;9454;-70
2023/12/17 02:00:15;;;;;;;;;;;17.80;67.80;;;;;;7322731;19;9457;-72
2023/12/17 02:02:45;;;;;;;;;;;17.80;67.90;;;;;;7322017;19;9266;-71
2023/12/17 02:05:14;;;;;;;;;;;17.80;67.90;;;;;;7318080;19;9526;-72
2023/12/17 02:07:44;;;;;;;;;;;17.90;68.00;;;;;;7321447;19;9477;-71
2023/12/17 02:10:13;;;;;;;;;;;17.80;68.10;;;;;;7321912;19;9456;-71
2023/12/17 02:12:45;;;;;;;;;;;17.80;68.10;;;;;;7320841;19;9503;-70
2023/12/17 02:15:14;;;;;;;;;;;17.80;68.10;;;;;;7322150;19;9591;-72
2023/12/17 02:17:44;;;;;;;;;;;17.70;68.10;;;;;;7322032;19;9447;-71
2023/12/17 02:20:14;;;;;;;;;;;17.70;68.20;;;;;;7321238;19;9443;-71
2023/12/17 02:22:46;;;;;;;;;;;17.70;68.30;;;;;;7321240;19;9409;-71
2023/12/17 02:25:17;;;;;;;;;;;17.70;68.30;;;;;;7319605;19;9675;-71
2023/12/17 02:27:46;;;;;;;;;;;17.60;68.30;;;;;;7322825;19;9171;-71
2023/12/17 02:30:16;;;;;;;;;;;17.60;68.30;;;;;;7322187;19;9437;-71
2023/12/17 02:32:45;;;;;;;;;;;17.60;68.40;;;;;;7322871;19;9553;-72
2023/12/17 02:35:14;;;;;;;;;;;17.60;68.40;;;;;;7321147;19;10581;-72
2023/12/17 02:37:43;;;;;;;;;;;17.60;68.50;;;;;;7321403;19;9268;-71
2023/12/17 02:40:13;;;;;;;;;;;17.50;68.50;;;;;;7320451;19;9368;-71
2023/12/17 02:42:45;;;;;;;;;;;17.50;68.50;;;;;;7320955;19;10389;-71
2023/12/17 02:45:15;;;;;;;;;;;17.50;68.60;;;;;;7321182;19;9580;-71
2023/12/17 02:47:44;;;;;;;;;;;17.50;68.70;;;;;;7321494;19;9265;-71
2023/12/17 02:50:33;;;;;;;;;;;17.40;68.60;;;;;;7318084;19;9223;-71
2023/12/17 02:53:02;;;;;;;;;;;17.40;68.60;;;;;;7323298;19;9578;-72
2023/12/17 02:55:31;;;;;;;;;;;17.40;68.70;;;;;;7320517;19;9553;-71
2023/12/17 02:58:06;;;;;;;;;;;17.40;68.70;;;;;;7323131;19;9473;-71
2023/12/17 03:00:36;;;;;;;;;;;17.40;68.80;;;;;;7320618;19;9178;-71
2023/12/17 03:03:05;;;;;;;;;;;17.40;68.80;;;;;;7322967;19;9516;-71
2023/12/17 03:05:35;;;;;;;;;;;17.40;68.80;;;;;;7320839;19;9473;-71
2023/12/17 03:08:05;;;;;;;;;;;17.30;68.90;;;;;;7322040;19;9489;-71
2023/12/17 03:10:38;;;;;;;;;;;17.30;69.00;;;;;;7321117;19;9204;-71
2023/12/17 03:13:09;;;;;;;;;;;17.30;69.00;;;;;;7320902;19;9369;-71
2023/12/17 03:15:39;;;;;;;;;;;17.30;69.10;;;;;;7321097;19;9267;-71
2023/12/17 03:18:08;;;;;;;;;;;17.20;69.00;;;;;;7320883;19;9230;-71
2023/12/17 03:20:37;;;;;;;;;;;17.20;69.00;;;;;;7321632;19;9392;-73
2023/12/17 03:23:07;;;;;;;;;;;17.20;69.10;;;;;;7320727;19;9328;-72
2023/12/17 03:25:36;;;;;;;;;;;17.20;69.10;;;;;;7320833;19;10689;-71
2023/12/17 03:28:05;;;;;;;;;;;17.20;69.20;;;;;;7321867;19;10477;-72
2023/12/17 03:30:37;;;;;;;;;;;17.10;69.20;;;;;;7320173;19;10340;-73
2023/12/17 03:33:06;;;;;;;;;;;17.20;69.20;;;;;;7321514;19;9333;-71
2023/12/17 03:35:35;;;;;;;;;;;17.10;69.30;;;;;;7322273;19;9520;-71
2023/12/17 03:38:04;;;;;;;;;;;17.10;69.30;;;;;;7320627;19;10903;-71
2023/12/17 03:40:33;;;;;;;;;;;17.10;69.30;;;;;;7321455;19;9514;-71
2023/12/17 03:43:03;;;;;;;;;;;17.10;69.40;;;;;;7320940;19;9246;-71
2023/12/17 03:45:33;;;;;;;;;;;17.10;69.30;;;;;;7321434;19;9637;-71
2023/12/17 03:48:05;;;;;;;;;;;17.10;69.40;;;;;;7319019;19;9414;-71
2023/12/17 03:50:35;;;;;;;;;;;17.00;69.40;;;;;;7320795;19;9431;-71
2023/12/17 03:53:24;;;;;;;;;;;17.00;69.40;;;;;;7319052;19;9408;-71
2023/12/17 03:55:53;;;;;;;;;;;17.00;69.40;;;;;;7319907;19;9459;-71
2023/12/17 03:58:22;;;;;;;;;;;17.00;69.40;;;;;;7321197;19;9577;-71
2023/12/17 04:00:51;;;;;;;;;;;17.00;69.40;;;;;;7318609;19;9260;-72
2023/12/17 04:03:22;;;;;;;;;;;17.00;69.40;;;;;;7319846;19;9193;-71
2023/12/17 04:05:51;;;;;;;;;;;17.00;69.50;;;;;;7317975;19;9453;-71
2023/12/17 04:08:21;;;;;;;;;;;17.00;69.40;;;;;;7320261;19;9488;-71
2023/12/17 04:10:51;;;;;;;;;;;17.00;69.40;;;;;;7320109;19;9482;-71
2023/12/17 04:13:20;;;;;;;;;;;17.00;69.30;;;;;;7318471;19;9191;-71
2023/12/17 04:15:50;;;;;;;;;;;17.00;69.40;;;;;;7319258;19;9269;-71
2023/12/17 04:18:21;;;;;;;;;;;17.00;69.40;;;;;;7317808;19;9254;-71
2023/12/17 04:20:51;;;;;;;;;;;17.00;69.40;;;;;;7318936;19;9507;-71
2023/12/17 04:23:20;;;;;;;;;;;17.00;69.40;;;;;;7318811;19;9218;-71
2023/12/17 04:25:50;;;;;;;;;;;17.00;69.30;;;;;;7319272;19;9634;-71
2023/12/17 04:28:19;;;;;;;;;;;17.00;69.40;;;;;;7318810;19;10263;-71
2023/12/17 04:30:48;;;;;;;;;;;17.00;69.40;;;;;;7317535;19;9441;-72
2023/12/17 04:33:17;;;;;;;;;;;17.00;69.40;;;;;;7319603;19;9428;-71
2023/12/17 04:35:48;;;;;;;;;;;17.00;69.50;;;;;;7319766;19;9445;-71
2023/12/17 04:38:19;;;;;;;;;;;17.00;69.50;;;;;;7317865;19;9442;-72
2023/12/17 04:40:48;;;;;;;;;;;17.00;69.40;;;;;;7319348;19;9221;-71
2023/12/17 04:43:17;;;;;;;;;;;16.90;69.40;;;;;;7319921;19;9493;-71
2023/12/17 04:45:46;;;;;;;;;;;16.90;69.40;;;;;;7317109;19;10603;-72
2023/12/17 04:48:15;;;;;;;;;;;17.00;70.00;;;;;;7318809;19;10504;-72
2023/12/17 04:50:44;;;;;;;;;;;17.00;69.50;;;;;;7318674;19;9244;-72
2023/12/17 04:53:16;;;;;;;;;;;17.00;69.50;;;;;;7318907;19;9464;-71
2023/12/17 04:55:45;;;;;;;;;;;16.90;69.40;;;;;;7317504;19;9614;-71
2023/12/17 04:58:14;;;;;;;;;;;16.90;69.40;;;;;;7318079;19;9290;-71
2023/12/17 05:00:43;;;;;;;;;;;16.90;69.50;;;;;;7318130;19;9409;-71
2023/12/17 05:03:12;;;;;;;;;;;16.90;69.50;;;;;;7318943;19;9360;-71
2023/12/17 05:05:41;;;;;;;;;;;16.90;69.50;;;;;;7315652;19;9596;-71
2023/12/17 05:08:33;;;;;;;;;;;16.90;69.50;;;;;;7317215;19;9574;-71
2023/12/17 05:11:03;;;;;;;;;;;16.90;69.60;;;;;;7317626;19;10339;-72
2023/12/17 05:13:32;;;;;;;;;;;16.90;69.50;;;;;;7321183;19;9667;-71
2023/12/17 05:16:01;;;;;;;;;;;16.90;69.50;;;;;;7324028;19;9474;-72
2023/12/17 05:18:30;;;;;;;;;;;16.90;69.70;;;;;;7321581;19;9462;-72
2023/12/17 05:20:56;;;;;;;;;;;16.80;69.60;;;;;;7323139;19;9304;-71
2023/12/17 05:23:25;;;;;;;;;;;16.90;69.60;;;;;;7323513;19;10666;-72
2023/12/17 05:25:56;;;;;;;;;;;16.90;69.70;;;;;;7322612;19;9246;-71
2023/12/17 05:28:27;;;;;;;;;;;16.90;69.70;;;;;;7323135;19;9320;-71
2023/12/17 05:30:56;;;;;;;;;;;17.00;70.20;;;;;;7322492;19;9306;-71
2023/12/17 05:33:25;;;;;;;;;;;17.00;69.50;;;;;;7323284;19;9317;-72
2023/12/17 05:35:54;;;;;;;;;;;17.00;69.30;;;;;;7323035;19;9474;-71
2023/12/17 05:38:23;;;;;;;;;;;17.10;69.10;;;;;;7322565;19;9470;-71
2023/12/17 05:40:52;;;;;;;;;;;17.20;69.10;;;;;;7322598;19;9233;-71
2023/12/17 05:43:25;;;;;;;;;;;17.20;69.00;;;;;;7322784;19;9329;-71
2023/12/17 05:45:54;;;;;;;;;;;17.30;68.80;;;;;;7320705;19;10523;-71
2023/12/17 05:48:23;;;;;;;;;;;17.40;68.70;;;;;;7322526;19;9495;-72
2023/12/17 05:50:52;;;;;;;;;;;17.40;68.70;;;;;;7320091;19;9669;-72
2023/12/17 05:53:21;;;;;;;;;;;17.50;68.60;;;;;;7323003;19;9484;-71
2023/12/17 05:55:51;;;;;;;;;;;17.60;68.60;;;;;;7323212;19;10990;-71
2023/12/17 05:58:20;;;;;;;;;;;17.60;68.40;;;;;;7323703;19;10844;-71
2023/12/17 06:00:51;;;;;;;;;;;17.70;68.40;;;;;;7320666;19;9547;-71
2023/12/17 06:03:20;;;;;;;;;;;17.70;68.30;;;;;;7322455;19;9529;-71
2023/12/17 06:05:49;;;;;;;;;;;17.70;68.20;;;;;;7322465;19;10519;-71
2023/12/17 06:08:18;;;;;;;;;;;17.70;68.10;;;;;;7322822;19;9464;-71
2023/12/17 06:10:47;;;;;;;;;;;17.80;68.10;;;;;;7322459;19;9177;-72
2023/12/17 06:13:17;;;;;;;;;;;17.80;68.00;;;;;;7321714;19;9583;-71
2023/12/17 06:15:46;;;;;;;;;;;17.80;68.10;;;;;;7322588;19;9679;-71
2023/12/17 06:18:17;;;;;;;;;;;17.80;68.00;;;;;;7321321;19;9403;-71
2023/12/17 06:20:46;;;;;;;;;;;17.80;68.00;;;;;;7322933;19;10311;-71
2023/12/17 06:23:15;;;;;;;;;;;17.80;68.10;;;;;;7321867;19;9229;-72
2023/12/17 06:25:44;;;;;;;;;;;17.80;68.10;;;;;;7320335;19;9675;-71
2023/12/17 06:28:13;;;;;;;;;;;17.80;68.10;;;;;;7321370;19;9468;-71
2023/12/17 06:30:42;;;;;;;;;;;17.80;68.10;;;;;;7322710;19;9275;-72
2023/12/17 06:33:11;;;;;;;;;;;17.70;68.10;;;;;;7322277;19;9266;-72
2023/12/17 06:35:42;;;;;;;;;;;17.70;68.20;;;;;;7322851;19;9374;-72
2023/12/17 06:38:11;;;;;;;;;;;17.70;68.30;;;;;;7320445;19;9225;-72
2023/12/17 06:40:40;;;;;;;;;;;17.70;68.30;;;;;;7322103;19;9462;-72
2023/12/17 06:43:09;;;;;;;;;;;17.60;68.30;;;;;;7322267;19;9478;-71
2023/12/17 06:45:38;;;;;;;;;;;17.60;68.40;;;;;;7322604;19;9474;-72
2023/12/17 06:48:08;;;;;;;;;;;17.60;68.40;;;;;;7321222;19;9540;-72
2023/12/17 06:50:37;;;;;;;;;;;17.60;68.50;;;;;;7323237;19;9179;-72
2023/12/17 06:53:08;;;;;;;;;;;17.50;68.50;;;;;;7322696;19;9196;-71
2023/12/17 06:55:37;;;;;;;;;;;17.50;68.50;;;;;;7321867;19;9495;-72
2023/12/17 06:58:06;;;;;;;;;;;17.50;68.60;;;;;;7322341;19;9443;-71
2023/12/17 07:00:35;;;;;;;;;;;17.50;68.60;;;;;;7323158;19;9416;-71
2023/12/17 07:03:04;;;;;;;;;;;17.50;68.70;;;;;;7321624;19;9455;-72
2023/12/17 07:05:33;;;;;;;;;;;17.40;68.70;;;;;;7322003;19;9348;-71
2023/12/17 07:08:02;;;;;;;;;;;17.40;68.70;;;;;;7321253;19;9727;-72
2023/12/17 07:10:33;;;;;;;;;;;17.40;68.70;;;;;;7321295;19;9555;-72
2023/12/17 07:13:03;;;;;;;;;;;17.40;68.80;;;;;;7322291;19;9468;-71
2023/12/17 07:15:33;;;;;;;;;;;17.30;68.70;;;;;;7320866;19;9031;-71
2023/12/17 07:18:02;;;;;;;;;;;17.30;68.80;;;;;;7321757;19;10776;-71
2023/12/17 07:20:31;;;;;;;;;;;17.30;68.80;;;;;;7320360;19;9449;-71
2023/12/17 07:23:00;;;;;;;;;;;17.30;68.90;;;;;;7321057;19;9563;-72
2023/12/17 07:25:29;;;;;;;;;;;17.30;69.00;;;;;;7320761;19;9425;-72
2023/12/17 07:28:00;;;;;;;;;;;17.20;69.00;;;;;;7319961;19;9541;-71
2023/12/17 07:30:30;;;;;;;;;;;17.20;69.00;;;;;;7318321;19;9512;-72
2023/12/17 07:32:59;;;;;;;;;;;17.20;69.00;;;;;;7319510;19;9557;-71
2023/12/17 07:35:28;;;;;;;;;;;17.20;69.10;;;;;;7320111;19;9294;-71
2023/12/17 07:37:56;;;;;;;;;;;17.20;69.10;;;;;;7318826;19;9444;-72
2023/12/17 07:40:46;;;;;;;;;;;17.10;69.10;;;;;;7319655;19;9617;-71
2023/12/17 07:43:18;;;;;;;;;;;17.10;69.20;;;;;;7320194;19;9528;-72
2023/12/17 07:45:47;;;;;;;;;;;17.10;69.10;;;;;;7318702;19;10334;-72
2023/12/17 07:48:15;;;;;;;;;;;17.10;69.20;;;;;;7320566;19;10328;-71
2023/12/17 07:50:45;;;;;;;;;;;17.10;69.20;;;;;;7320453;19;9465;-72
2023/12/17 07:53:14;;;;;;;;;;;17.10;69.20;;;;;;7318082;19;9253;-71
2023/12/17 07:55:43;;;;;;;;;;;17.10;69.20;;;;;;7319672;19;9575;-72
2023/12/17 07:58:12;;;;;;;;;;;17.10;69.20;;;;;;7319987;19;9267;-72
2023/12/17 08:00:43;;;;;;;;;;;17.00;69.20;;;;;;7319672;19;9419;-72
2023/12/17 08:03:12;;;;;;;;;;;17.00;69.30;;;;;;7317970;19;10177;-72
2023/12/17 08:05:41;;;;;;;;;;;17.00;69.30;;;;;;7319198;19;9266;-72
2023/12/17 08:08:10;;;;;;;;;;;17.00;69.30;;;;;;7319274;19;9312;-71
2023/12/17 08:10:39;;;;;;;;;;;17.00;69.30;;;;;;7318238;19;9545;-71
2023/12/17 08:13:08;;;;;;;;;;;17.00;69.40;;;;;;7320629;19;10888;-72
2023/12/17 08:15:38;;;;;;;;;;;17.00;69.40;;;;;;7318899;19;9284;-72
2023/12/17 08:18:09;;;;;;;;;;;17.00;69.40;;;;;;7319719;19;9221;-72
2023/12/17 08:20:38;;;;;;;;;;;17.00;69.30;;;;;;7319965;19;9440;-72
2023/12/17 08:23:07;;;;;;;;;;;17.00;69.40;;;;;;7318844;19;9140;-71
2023/12/17 08:25:38;;;;;;;;;;;16.90;69.90;;;;;;7319391;19;9253;-72
2023/12/17 08:28:07;;;;;;;;;;;17.00;69.40;;;;;;7319117;19;9212;-72
2023/12/17 08:30:40;;;;;;;;;;;17.00;69.40;;;;;;7318831;19;9080;-71
2023/12/17 08:33:11;;;;;;;;;;;16.90;69.40;;;;;;7318911;19;9314;-72
2023/12/17 08:35:40;;;;;;;;;;;16.90;69.40;;;;;;7317629;19;9509;-71
2023/12/17 08:38:09;;;;;;;;;;;16.90;69.40;;;;;;7317468;19;9400;-72
2023/12/17 08:40:39;;;;;;;;;;;16.90;69.40;;;;;;7318997;19;9290;-71
2023/12/17 08:43:09;;;;;;;;;;;16.90;69.30;;;;;;7317549;19;9363;-72
2023/12/17 08:45:39;;;;;;;;;;;16.90;69.30;;;;;;7317629;19;9585;-71
2023/12/17 08:48:10;;;;;;;;;;;16.90;69.30;;;;;;7315472;19;9391;-72
2023/12/17 08:50:39;;;;;;;;;;;16.90;69.30;;;;;;7318055;19;9316;-72
2023/12/17 08:53:08;;;;;;;;;;;16.90;69.30;;;;;;7318062;19;9294;-72
2023/12/17 08:55:37;;;;;;;;;;;16.90;69.30;;;;;;7317721;19;9479;-71
2023/12/17 08:58:06;;;;;;;;;;;16.90;69.40;;;;;;7318325;19;9240;-72
2023/12/17 09:00:36;;;;;;;;;;;16.90;69.30;;;;;;7317670;19;9198;-72
2023/12/17 09:03:05;;;;;;;;;;;16.90;69.40;;;;;;7317375;19;9588;-71
2023/12/17 09:05:36;;;;;;;;;;;16.90;69.40;;;;;;7316241;19;9445;-71
2023/12/17 09:08:06;;;;;;;;;;;16.90;69.40;;;;;;7317092;19;9682;-72
2023/12/17 09:10:34;;;;;;;;;;;16.80;69.40;;;;;;7315121;19;9658;-71
2023/12/17 09:13:03;;;;;;;;;;;16.90;69.40;;;;;;7317830;19;9186;-71
2023/12/17 09:15:32;;;;;;;;;;;16.90;69.40;;;;;;7315320;19;9557;-72
2023/12/17 09:18:02;;;;;;;;;;;16.90;69.40;;;;;;7316964;19;9288;-72
2023/12/17 09:20:31;;;;;;;;;;;17.00;69.20;;;;;;7316873;19;9219;-72
2023/12/17 09:23:03;;;;;;;;;;;17.10;69.20;;;;;;7317583;19;10428;-71
2023/12/17 09:25:32;;;;;;;;;;;17.10;69.00;;;;;;7317508;19;9448;-71
2023/12/17 09:28:01;;;;;;;;;;;17.20;69.00;;;;;;7316017;19;9488;-71
2023/12/17 09:30:30;;;;;;;;;;;17.20;68.80;;;;;;7317546;19;9517;-72
2023/12/17 09:32:59;;;;;;;;;;;17.30;68.70;;;;;;7317185;19;9542;-72
2023/12/17 09:35:28;;;;;;;;;;;17.40;68.60;;;;;;7316835;19;9381;-72
2023/12/17 09:37:57;;;;;;;;;;;17.40;68.50;;;;;;7315445;19;9631;-71
2023/12/17 09:40:49;;;;;;;;;;;17.50;68.50;;;;;;7315039;19;9598;-71
2023/12/17 09:43:20;;;;;;;;;;;17.60;68.40;;;;;;7316020;19;9445;-71
2023/12/17 09:45:49;;;;;;;;;;;17.70;68.30;;;;;;7315881;19;9289;-71
2023/12/17 09:48:18;;;;;;;;;;;17.70;68.20;;;;;;7315931;19;9427;-72
2023/12/17 09:50:47;;;;;;;;;;;17.70;68.10;;;;;;7315535;19;9453;-72
2023/12/17 09:53:16;;;;;;;;;;;17.80;68.10;;;;;;7315632;19;10584;-72
2023/12/17 09:55:45;;;;;;;;;;;17.80;68.00;;;;;;7316339;19;9330;-72
2023/12/17 09:58:17;;;;;;;;;;;17.80;68.00;;;;;;7314570;19;9313;-72
2023/12/17 10:00:46;;;;;;;;;;;17.80;67.90;;;;;;7322393;19;9578;-72
2023/12/17 10:03:14;;;;;;;;;;;17.80;67.90;;;;;;7322646;19;9207;-71
2023/12/17 10:05:43;;;;;;;;;;;17.80;67.90;;;;;;7322436;19;11102;-72
2023/12/17 10:08:13;;;;;;;;;;;17.80;67.80;;;;;;7320561;19;9519;-72
2023/12/17 10:10:43;;;;;;;;;;;17.80;67.90;;;;;;7319510;19;9536;-72
2023/12/17 10:13:14;;;;;;;;;;;17.80;67.90;;;;;;7322217;19;9194;-72
2023/12/17 10:15:47;;;;;;;;;;;17.80;68.00;;;;;;7321873;19;9374;-72
2023/12/17 10:18:18;;;;;;;;;;;17.80;68.10;;;;;;7321241;19;9328;-72
2023/12/17 10:20:48;;;;;;;;;;;17.80;68.10;;;;;;7321445;19;9205;-71
2023/12/17 10:23:17;;;;;;;;;;;17.70;68.10;;;;;;7322009;19;9413;-72
2023/12/17 10:25:46;;;;;;;;;;;17.70;68.80;;;;;;7321115;19;9228;-72
2023/12/17 10:28:16;;;;;;;;;;;17.70;68.20;;;;;;7321536;19;9267;-72
2023/12/17 10:30:48;;;;;;;;;;;17.70;68.30;;;;;;7321314;19;9411;-72
2023/12/17 10:33:28;;;;;;;;;;;17.60;68.30;;;;;;7321427;19;9446;-72
2023/12/17 10:35:57;;;;;;;;;;;17.60;68.30;;;;;;7320909;19;9305;-72
2023/12/17 10:38:27;;;;;;;;;;;17.60;68.40;;;;;;7321044;19;9248;-72
2023/12/17 10:40:57;;;;;;;;;;;17.60;68.40;;;;;;7321535;19;9399;-72
2023/12/17 10:43:28;;;;;;;;;;;17.50;68.50;;;;;;7321733;19;9405;-72
2023/12/17 10:46:02;;;;;;;;;;;17.50;68.50;;;;;;7320492;19;9316;-72
2023/12/17 10:48:32;;;;;;;;;;;17.50;68.50;;;;;;7322216;19;10309;-72
2023/12/17 10:51:03;;;;;;;;;;;17.50;68.60;;;;;;7320585;19;9173;-72
2023/12/17 10:53:32;;;;;;;;;;;17.50;68.60;;;;;;7321101;19;9461;-71
2023/12/17 10:56:03;;;;;;;;;;;17.40;68.60;;;;;;7318071;19;11593;-72
2023/12/17 10:58:34;;;;;;;;;;;17.40;68.70;;;;;;7319145;19;10134;-72
2023/12/17 11:01:06;;;;;;;;;;;17.40;68.70;;;;;;7319745;19;9335;-72
2023/12/17 11:03:38;;;;;;;;;;;17.40;68.80;;;;;;7321113;19;9273;-72
2023/12/17 11:06:07;;;;;;;;;;;17.40;68.80;;;;;;7319531;19;9385;-72
2023/12/17 11:08:37;;;;;;;;;;;17.40;68.80;;;;;;7320657;19;9223;-72
2023/12/17 11:11:06;;;;;;;;;;;17.30;68.80;;;;;;7318251;19;9340;-72
2023/12/17 11:13:37;;;;;;;;;;;17.30;68.90;;;;;;7321150;19;9289;-72
2023/12/17 11:16:25;;;;;;;;;;;17.30;68.90;;;;;;7320466;19;10498;-72
2023/12/17 11:18:55;;;;;;;;;;;17.30;68.90;;;;;;7320831;19;9051;-72
2023/12/17 11:21:26;;;;;;;;;;;17.30;69.00;;;;;;7320171;19;9205;-72
2023/12/17 11:23:55;;;;;;;;;;;17.30;68.90;;;;;;7322018;19;9352;-72
2023/12/17 11:26:27;;;;;;;;;;;17.30;68.90;;;;;;7316686;19;9243;-72
2023/12/17 11:28:57;;;;;;;;;;;17.20;68.90;;;;;;7319934;19;9253;-72
2023/12/17 11:31:29;;;;;;;;;;;17.30;69.00;;;;;;7319379;19;9249;-72
2023/12/17 11:33:58;;;;;;;;;;;17.20;69.00;;;;;;7321279;19;9479;-71
2023/12/17 11:36:29;;;;;;;;;;;17.20;69.00;;;;;;7319394;19;9288;-72
2023/12/17 11:38:59;;;;;;;;;;;17.20;69.10;;;;;;7320046;19;9308;-72
2023/12/17 11:41:27;;;;;;;;;;;17.20;69.00;;;;;;7319367;19;9719;-71
2023/12/17 11:43:56;;;;;;;;;;;17.20;69.10;;;;;;7319467;19;9456;-72
2023/12/17 11:46:25;;;;;;;;;;;17.20;69.10;;;;;;7318495;19;9542;-72
2023/12/17 11:48:57;;;;;;;;;;;17.20;69.10;;;;;;7320076;19;9445;-72
2023/12/17 11:51:46;;;;;;;;;;;17.20;69.20;;;;;;7318477;19;9672;-72
2023/12/17 11:54:20;;;;;;;;;;;17.20;69.10;;;;;;7319342;19;9498;-72
2023/12/17 11:56:50;;;;;;;;;;;17.20;69.20;;;;;;7318921;19;9439;-72
2023/12/17 11:59:33;;;;;;;;;;;17.20;69.20;;;;;;7319041;19;9222;-72
2023/12/17 12:02:03;;;;;;;;;;;17.20;69.20;;;;;;7320593;19;9553;-71
2023/12/17 12:04:43;;;;;;;;;;;17.20;69.20;;;;;;7318746;19;9232;-72
2023/12/17 12:07:13;;;;;;;;;;;17.20;69.30;;;;;;7319074;19;9474;-72
2023/12/17 12:09:42;;;;;;;;;;;17.20;69.30;;;;;;7318408;19;11116;-71
2023/12/17 12:12:21;;;;;;;;;;;17.10;69.20;;;;;;7319431;19;9366;-72
2023/12/17 12:14:51;;;;;;;;;;;17.20;69.20;;;;;;7318591;19;10418;-71
2023/12/17 12:17:38;;;;;;;;;;;17.20;69.20;;;;;;7317012;19;9369;-72
2023/12/17 12:20:13;;;;;;;;;;;17.20;69.30;;;;;;7317842;19;9427;-71
2023/12/17 12:22:45;;;;;;;;;;;17.20;69.20;;;;;;7315427;19;9473;-71
2023/12/17 12:25:20;;;;;;;;;;;17.20;69.20;;;;;;7318572;19;9190;-71
2023/12/17 12:27:49;;;;;;;;;;;17.20;69.20;;;;;;7318357;19;9035;-71
2023/12/17 12:30:29;;;;;;;;;;;17.20;69.20;;;;;;7318896;19;9203;-71
2023/12/17 12:32:58;;;;;;;;;;;17.20;69.20;;;;;;7318349;19;11007;-71
2023/12/17 12:35:32;;;;;;;;;;;17.20;69.20;;;;;;7318383;19;9486;-71
2023/12/17 12:38:03;;;;;;;;;;;17.20;69.20;;;;;;7317975;19;9686;-71
2023/12/17 12:40:33;;;;;;;;;;;17.20;69.20;;;;;;7318103;19;9189;-71
2023/12/17 12:43:07;;;;;;;;;;;17.20;69.20;;;;;;7317713;19;9489;-71
2023/12/17 12:45:35;;;;;;;;;;;17.30;69.20;;;;;;7319052;19;9286;-70
2023/12/17 12:48:04;;;;;;;;;;;17.30;69.20;;;;;;7318221;19;9476;-71
2023/12/17 12:50:36;;;;;;;;;;;17.30;69.20;;;;;;7317753;19;9402;-70
2023/12/17 12:53:05;;;;;;;;;;;17.30;69.10;;;;;;7318358;19;9548;-71
2023/12/17 12:55:34;;;;;;;;;;;17.30;69.10;;;;;;7318674;19;9659;-70
2023/12/17 12:58:03;;;;;;;;;;;17.30;69.20;;;;;;7317749;19;9131;-71
2023/12/17 13:00:32;;;;;;;;;;;17.30;69.10;;;;;;7317901;19;9649;-71
2023/12/17 13:03:01;;;;;;;;;;;17.30;69.20;;;;;;7316121;19;9495;-71
2023/12/17 13:05:52;;;;;;;;;;;17.30;69.10;;;;;;7314469;19;9270;-71
2023/12/17 13:08:22;;;;;;;;;;;17.40;69.10;;;;;;7316779;19;9500;-71
2023/12/17 13:10:52;;;;;;;;;;;17.30;69.10;;;;;;7316590;19;9500;-71
2023/12/17 13:13:21;;;;;;;;;;;17.40;69.10;;;;;;7317169;19;9277;-71
2023/12/17 13:15:50;;;;;;;;;;;17.40;69.10;;;;;;7316230;19;9234;-71
2023/12/17 13:18:20;;;;;;;;;;;17.40;69.10;;;;;;7316348;19;9158;-70
2023/12/17 13:20:55;;;;;;;;;;;17.40;69.10;;;;;;7317710;19;9297;-71
2023/12/17 13:23:24;;;;;;;;;;;17.40;69.10;;;;;;7316259;19;9338;-71
2023/12/17 13:25:53;;;;;;;;;;;17.30;69.00;;;;;;7314550;19;9561;-70
2023/12/17 13:28:23;;;;;;;;;;;17.40;69.10;;;;;;7316270;19;9262;-71
2023/12/17 13:30:51;;;;;;;;;;;17.30;69.00;;;;;;7317044;19;10678;-71
2023/12/17 13:33:20;;;;;;;;;;;17.40;69.10;;;;;;7316375;19;9512;-71
2023/12/17 13:35:52;;;;;;;;;;;17.30;69.00;;;;;;7322313;19;9474;-71
2023/12/17 13:38:21;;;;;;;;;;;17.30;69.00;;;;;;7321846;19;9366;-71
2023/12/17 13:40:50;;;;;;;;;;;17.30;69.00;;;;;;7321913;19;9355;-71
2023/12/17 13:43:19;;;;;;;;;;;17.30;69.10;;;;;;7321880;19;9203;-70
2023/12/17 13:45:48;;;;;;;;;;;17.30;69.00;;;;;;7323573;19;9200;-71
2023/12/17 13:48:17;;;;;;;;;;;17.30;69.00;;;;;;7323284;19;9213;-71
2023/12/17 13:50:46;;;;;;;;;;;17.30;69.10;;;;;;7322504;19;9380;-71
2023/12/17 13:53:19;;;;;;;;;;;17.30;69.10;;;;;;7322592;19;9170;-72
2023/12/17 13:55:48;;;;;;;;;;;17.30;69.10;;;;;;7322533;19;10399;-71
2023/12/17 13:58:17;;;;;;;;;;;17.30;69.10;;;;;;7322635;19;9645;-71
2023/12/17 14:00:46;;;;;;;;;;;17.30;69.70;;;;;;7322080;19;9249;-71
2023/12/17 14:03:15;;;;;;;;;;;17.30;69.20;;;;;;7322599;19;9704;-71
2023/12/17 14:05:44;;;;;;;;;;;17.30;69.10;;;;;;7322465;19;9286;-71
2023/12/17 14:08:13;;;;;;;;;;;17.30;69.10;;;;;;7323129;19;9436;-70
2023/12/17 14:10:45;;;;;;;;;;;17.30;69.10;;;;;;7322891;19;9271;-71
2023/12/17 14:13:14;;;;;;;;;;;17.30;69.10;;;;;;7320881;19;9657;-71
2023/12/17 14:15:43;;;;;;;;;;;17.20;69.10;;;;;;7321037;19;9434;-71
2023/12/17 14:18:13;;;;;;;;;;;17.30;69.10;;;;;;7322494;19;9510;-71
2023/12/17 14:20:42;;;;;;;;;;;17.30;69.10;;;;;;7322790;19;8962;-71
2023/12/17 14:23:12;;;;;;;;;;;17.30;69.10;;;;;;7321319;19;9444;-70
2023/12/17 14:25:42;;;;;;;;;;;17.30;69.10;;;;;;7322847;19;9396;-70
2023/12/17 14:28:13;;;;;;;;;;;17.30;69.10;;;;;;7321360;19;9191;-70
2023/12/17 14:30:42;;;;;;;;;;;17.30;69.20;;;;;;7322228;19;9509;-71
2023/12/17 14:33:11;;;;;;;;;;;17.30;69.20;;;;;;7320486;19;9398;-71
2023/12/17 14:35:40;;;;;;;;;;;17.30;69.10;;;;;;7321996;19;9511;-71
2023/12/17 14:38:09;;;;;;;;;;;17.30;69.20;;;;;;7320610;19;9225;-71
2023/12/17 14:40:38;;;;;;;;;;;17.30;69.10;;;;;;7320923;19;9505;-70
2023/12/17 14:43:07;;;;;;;;;;;17.30;69.20;;;;;;7321252;19;9415;-71
2023/12/17 14:45:38;;;;;;;;;;;17.30;69.20;;;;;;7320384;19;9432;-71
2023/12/17 14:48:09;;;;;;;;;;;17.30;69.10;;;;;;7319583;19;9883;-71